sensor_id;sensor_type;location;lat;lon;timestamp;P1;durP1;ratioP1;P2;durP2;ratioP2
18726;SDS011;9492;51.888;5.186;2023-04-01T00:01:13;9.87;;;4.00;;
18726;SDS011;9492;51.888;5.186;2023-04-01T00:03:40;14.53;;;4.53;;
18726;SDS011;9492;51.888;5.186;2023-04-01T00:06:06;14.83;;;4.60;;
18726;SDS011;9492;51.888;5.186;2023-04-01T00:08:32;14.23;;;4.30;;
18726;SDS011;9492;51.888;5.186;2023-04-01T00:10:58;9.33;;;3.97;;
18726;SDS011;9492;51.888;5.186;2023-04-01T00:13:25;11.03;;;3.77;;
18726;SDS011;9492;51.888;5.186;2023-04-01T00:15:51;17.23;;;4.37;;
18726;SDS011;9492;51.888;5.186;2023-04-01T00:18:19;13.33;;;4.37;;
18726;SDS011;9492;51.888;5.186;2023-04-01T00:20:48;9.37;;;2.97;;
18726;SDS011;9492;51.888;5.186;2023-04-01T00:23:17;11.57;;;4.00;;
18726;SDS011;9492;51.888;5.186;2023-04-01T00:25:44;7.43;;;2.90;;
18726;SDS011;9492;51.888;5.186;2023-04-01T00:28:12;9.47;;;3.27;;
18726;SDS011;9492;51.888;5.186;2023-04-01T00:30:38;8.30;;;3.40;;
18726;SDS011;9492;51.888;5.186;2023-04-01T00:33:05;9.23;;;3.80;;
18726;SDS011;9492;51.888;5.186;2023-04-01T00:35:33;8.10;;;3.27;;
18726;SDS011;9492;51.888;5.186;2023-04-01T00:37:59;6.50;;;3.20;;
18726;SDS011;9492;51.888;5.186;2023-04-01T00:40:30;10.23;;;4.03;;
18726;SDS011;9492;51.888;5.186;2023-04-01T00:42:56;9.80;;;3.87;;
18726;SDS011;9492;51.888;5.186;2023-04-01T00:51:06;9.87;;;3.87;;
18726;SDS011;9492;51.888;5.186;2023-04-01T00:53:34;11.50;;;4.23;;
18726;SDS011;9492;51.888;5.186;2023-04-01T00:56:05;12.20;;;4.57;;
18726;SDS011;9492;51.888;5.186;2023-04-01T01:01:01;13.97;;;4.87;;
18726;SDS011;9492;51.888;5.186;2023-04-01T01:03:27;17.37;;;5.30;;
18726;SDS011;9492;51.888;5.186;2023-04-01T01:06:04;15.10;;;5.53;;
18726;SDS011;9492;51.888;5.186;2023-04-01T01:11:04;15.10;;;6.13;;
18726;SDS011;9492;51.888;5.186;2023-04-01T01:13:34;22.73;;;6.23;;
18726;SDS011;9492;51.888;5.186;2023-04-01T01:16:04;20.87;;;6.80;;
18726;SDS011;9492;51.888;5.186;2023-04-01T01:23:49;19.97;;;6.93;;
18726;SDS011;9492;51.888;5.186;2023-04-01T01:29:00;23.97;;;6.53;;
18726;SDS011;9492;51.888;5.186;2023-04-01T01:31:30;21.40;;;7.57;;
18726;SDS011;9492;51.888;5.186;2023-04-01T01:36:53;13.87;;;5.33;;
18726;SDS011;9492;51.888;5.186;2023-04-01T01:39:21;21.87;;;6.97;;
18726;SDS011;9492;51.888;5.186;2023-04-01T01:41:52;20.50;;;7.23;;
18726;SDS011;9492;51.888;5.186;2023-04-01T01:44:19;20.30;;;6.17;;
18726;SDS011;9492;51.888;5.186;2023-04-01T01:46:46;16.57;;;5.77;;
18726;SDS011;9492;51.888;5.186;2023-04-01T01:49:13;15.90;;;5.80;;
18726;SDS011;9492;51.888;5.186;2023-04-01T01:51:45;12.93;;;4.77;;
18726;SDS011;9492;51.888;5.186;2023-04-01T01:54:13;10.70;;;4.50;;
18726;SDS011;9492;51.888;5.186;2023-04-01T01:59:45;13.53;;;5.07;;
18726;SDS011;9492;51.888;5.186;2023-04-01T02:02:12;9.20;;;4.57;;
18726;SDS011;9492;51.888;5.186;2023-04-01T02:04:42;10.97;;;4.97;;
18726;SDS011;9492;51.888;5.186;2023-04-01T02:07:27;12.73;;;4.73;;
18726;SDS011;9492;51.888;5.186;2023-04-01T02:09:58;13.77;;;4.80;;
18726;SDS011;9492;51.888;5.186;2023-04-01T02:12:24;10.13;;;5.00;;
18726;SDS011;9492;51.888;5.186;2023-04-01T02:17:21;11.17;;;4.63;;
18726;SDS011;9492;51.888;5.186;2023-04-01T02:22:26;8.30;;;4.27;;
18726;SDS011;9492;51.888;5.186;2023-04-01T02:25:05;9.97;;;4.10;;
18726;SDS011;9492;51.888;5.186;2023-04-01T02:27:31;9.77;;;4.73;;
18726;SDS011;9492;51.888;5.186;2023-04-01T02:29:58;13.73;;;4.30;;
18726;SDS011;9492;51.888;5.186;2023-04-01T02:32:24;11.57;;;4.30;;
18726;SDS011;9492;51.888;5.186;2023-04-01T02:34:50;9.33;;;4.23;;
18726;SDS011;9492;51.888;5.186;2023-04-01T02:37:17;8.23;;;4.77;;
18726;SDS011;9492;51.888;5.186;2023-04-01T02:39:43;7.47;;;3.57;;
18726;SDS011;9492;51.888;5.186;2023-04-01T02:42:09;7.77;;;2.90;;
18726;SDS011;9492;51.888;5.186;2023-04-01T02:44:39;11.33;;;3.60;;
18726;SDS011;9492;51.888;5.186;2023-04-01T02:47:07;7.33;;;3.97;;
18726;SDS011;9492;51.888;5.186;2023-04-01T02:49:32;10.80;;;3.97;;
18726;SDS011;9492;51.888;5.186;2023-04-01T02:51:58;9.67;;;4.27;;
18726;SDS011;9492;51.888;5.186;2023-04-01T02:54:25;6.97;;;3.87;;
18726;SDS011;9492;51.888;5.186;2023-04-01T02:56:51;6.40;;;3.40;;
18726;SDS011;9492;51.888;5.186;2023-04-01T02:59:17;9.50;;;4.77;;
18726;SDS011;9492;51.888;5.186;2023-04-01T03:01:43;9.40;;;3.63;;
18726;SDS011;9492;51.888;5.186;2023-04-01T03:04:09;6.33;;;3.60;;
18726;SDS011;9492;51.888;5.186;2023-04-01T03:06:35;7.30;;;3.90;;
18726;SDS011;9492;51.888;5.186;2023-04-01T03:09:01;8.50;;;3.90;;
18726;SDS011;9492;51.888;5.186;2023-04-01T03:11:28;7.10;;;3.43;;
18726;SDS011;9492;51.888;5.186;2023-04-01T03:13:54;6.23;;;2.90;;
18726;SDS011;9492;51.888;5.186;2023-04-01T03:16:20;8.87;;;3.90;;
18726;SDS011;9492;51.888;5.186;2023-04-01T03:18:46;5.50;;;3.63;;
18726;SDS011;9492;51.888;5.186;2023-04-01T03:21:21;5.30;;;2.53;;
18726;SDS011;9492;51.888;5.186;2023-04-01T03:23:47;6.13;;;3.50;;
18726;SDS011;9492;51.888;5.186;2023-04-01T03:26:13;4.07;;;2.57;;
18726;SDS011;9492;51.888;5.186;2023-04-01T03:28:39;7.87;;;3.90;;
18726;SDS011;9492;51.888;5.186;2023-04-01T03:31:06;5.50;;;4.03;;
18726;SDS011;9492;51.888;5.186;2023-04-01T03:33:31;6.83;;;4.23;;
18726;SDS011;9492;51.888;5.186;2023-04-01T03:35:57;5.43;;;4.10;;
18726;SDS011;9492;51.888;5.186;2023-04-01T03:38:26;8.03;;;4.30;;
18726;SDS011;9492;51.888;5.186;2023-04-01T03:40:53;8.13;;;4.07;;
18726;SDS011;9492;51.888;5.186;2023-04-01T03:43:19;8.77;;;5.30;;
18726;SDS011;9492;51.888;5.186;2023-04-01T03:45:46;9.13;;;5.00;;
18726;SDS011;9492;51.888;5.186;2023-04-01T03:48:12;9.07;;;5.23;;
18726;SDS011;9492;51.888;5.186;2023-04-01T03:50:39;7.53;;;4.00;;
18726;SDS011;9492;51.888;5.186;2023-04-01T03:53:05;7.00;;;4.40;;
18726;SDS011;9492;51.888;5.186;2023-04-01T03:55:31;5.77;;;4.60;;
18726;SDS011;9492;51.888;5.186;2023-04-01T03:57:58;6.67;;;5.33;;
18726;SDS011;9492;51.888;5.186;2023-04-01T04:00:30;6.73;;;5.00;;
18726;SDS011;9492;51.888;5.186;2023-04-01T04:02:56;7.27;;;5.23;;
18726;SDS011;9492;51.888;5.186;2023-04-01T04:05:25;9.90;;;6.63;;
18726;SDS011;9492;51.888;5.186;2023-04-01T04:07:52;7.77;;;6.67;;
18726;SDS011;9492;51.888;5.186;2023-04-01T04:10:18;7.03;;;5.80;;
18726;SDS011;9492;51.888;5.186;2023-04-01T04:12:44;7.10;;;5.93;;
18726;SDS011;9492;51.888;5.186;2023-04-01T04:15:11;9.13;;;6.30;;
18726;SDS011;9492;51.888;5.186;2023-04-01T04:17:37;6.00;;;5.40;;
18726;SDS011;9492;51.888;5.186;2023-04-01T04:20:03;7.00;;;6.30;;
18726;SDS011;9492;51.888;5.186;2023-04-01T04:22:30;8.90;;;6.50;;
18726;SDS011;9492;51.888;5.186;2023-04-01T04:24:56;8.27;;;6.67;;
18726;SDS011;9492;51.888;5.186;2023-04-01T04:27:22;11.93;;;7.10;;
18726;SDS011;9492;51.888;5.186;2023-04-01T04:29:47;8.53;;;6.37;;
18726;SDS011;9492;51.888;5.186;2023-04-01T04:32:20;11.43;;;7.23;;
18726;SDS011;9492;51.888;5.186;2023-04-01T04:34:46;7.87;;;6.97;;
18726;SDS011;9492;51.888;5.186;2023-04-01T04:37:12;8.87;;;6.40;;
18726;SDS011;9492;51.888;5.186;2023-04-01T04:39:38;11.33;;;7.13;;
18726;SDS011;9492;51.888;5.186;2023-04-01T04:42:05;8.63;;;7.20;;
18726;SDS011;9492;51.888;5.186;2023-04-01T04:44:31;11.77;;;7.67;;
18726;SDS011;9492;51.888;5.186;2023-04-01T04:46:57;10.47;;;7.87;;
18726;SDS011;9492;51.888;5.186;2023-04-01T04:49:23;10.70;;;8.30;;
18726;SDS011;9492;51.888;5.186;2023-04-01T04:51:49;12.60;;;8.47;;
18726;SDS011;9492;51.888;5.186;2023-04-01T04:54:15;13.50;;;9.97;;
18726;SDS011;9492;51.888;5.186;2023-04-01T04:56:41;12.87;;;8.70;;
18726;SDS011;9492;51.888;5.186;2023-04-01T04:59:07;10.60;;;8.03;;
18726;SDS011;9492;51.888;5.186;2023-04-01T05:01:33;12.67;;;8.03;;
18726;SDS011;9492;51.888;5.186;2023-04-01T05:03:59;12.77;;;8.20;;
18726;SDS011;9492;51.888;5.186;2023-04-01T05:06:25;14.23;;;8.73;;
18726;SDS011;9492;51.888;5.186;2023-04-01T05:08:54;10.00;;;7.77;;
18726;SDS011;9492;51.888;5.186;2023-04-01T05:11:20;12.73;;;9.27;;
18726;SDS011;9492;51.888;5.186;2023-04-01T05:13:46;12.13;;;8.33;;
18726;SDS011;9492;51.888;5.186;2023-04-01T05:16:14;13.10;;;8.70;;
18726;SDS011;9492;51.888;5.186;2023-04-01T05:18:40;16.27;;;9.30;;
18726;SDS011;9492;51.888;5.186;2023-04-01T05:21:07;14.73;;;9.70;;
18726;SDS011;9492;51.888;5.186;2023-04-01T05:23:33;16.73;;;11.00;;
18726;SDS011;9492;51.888;5.186;2023-04-01T05:26:02;17.87;;;11.00;;
18726;SDS011;9492;51.888;5.186;2023-04-01T05:28:28;12.37;;;9.07;;
18726;SDS011;9492;51.888;5.186;2023-04-01T05:30:54;14.33;;;10.27;;
18726;SDS011;9492;51.888;5.186;2023-04-01T05:33:20;12.67;;;9.57;;
18726;SDS011;9492;51.888;5.186;2023-04-01T05:35:46;15.57;;;10.10;;
18726;SDS011;9492;51.888;5.186;2023-04-01T05:38:12;12.00;;;9.07;;
18726;SDS011;9492;51.888;5.186;2023-04-01T05:40:38;12.73;;;9.40;;
18726;SDS011;9492;51.888;5.186;2023-04-01T05:43:04;13.13;;;9.73;;
18726;SDS011;9492;51.888;5.186;2023-04-01T05:45:30;13.90;;;9.13;;
18726;SDS011;9492;51.888;5.186;2023-04-01T05:47:56;11.00;;;8.53;;
18726;SDS011;9492;51.888;5.186;2023-04-01T05:50:24;12.70;;;9.47;;
18726;SDS011;9492;51.888;5.186;2023-04-01T05:52:50;13.00;;;9.30;;
18726;SDS011;9492;51.888;5.186;2023-04-01T05:55:16;13.60;;;9.33;;
18726;SDS011;9492;51.888;5.186;2023-04-01T05:57:44;14.43;;;10.00;;
18726;SDS011;9492;51.888;5.186;2023-04-01T06:00:10;13.40;;;9.10;;
18726;SDS011;9492;51.888;5.186;2023-04-01T06:02:36;13.77;;;10.03;;
18726;SDS011;9492;51.888;5.186;2023-04-01T06:05:11;13.13;;;9.57;;
18726;SDS011;9492;51.888;5.186;2023-04-01T06:07:38;12.90;;;8.77;;
18726;SDS011;9492;51.888;5.186;2023-04-01T06:10:15;12.60;;;8.70;;
18726;SDS011;9492;51.888;5.186;2023-04-01T06:20:16;13.40;;;9.67;;
18726;SDS011;9492;51.888;5.186;2023-04-01T06:46:57;13.97;;;8.93;;
18726;SDS011;9492;51.888;5.186;2023-04-01T06:52:20;13.67;;;8.33;;
18726;SDS011;9492;51.888;5.186;2023-04-01T06:54:52;15.17;;;9.17;;
18726;SDS011;9492;51.888;5.186;2023-04-01T06:59:54;14.73;;;8.13;;
18726;SDS011;9492;51.888;5.186;2023-04-01T07:02:24;13.67;;;7.77;;
18726;SDS011;9492;51.888;5.186;2023-04-01T07:04:51;12.13;;;8.40;;
18726;SDS011;9492;51.888;5.186;2023-04-01T07:09:57;13.23;;;7.73;;
18726;SDS011;9492;51.888;5.186;2023-04-01T07:15:05;10.80;;;7.70;;
18726;SDS011;9492;51.888;5.186;2023-04-01T07:17:37;15.90;;;7.67;;
18726;SDS011;9492;51.888;5.186;2023-04-01T07:20:23;11.73;;;6.90;;
18726;SDS011;9492;51.888;5.186;2023-04-01T07:22:52;11.90;;;7.57;;
18726;SDS011;9492;51.888;5.186;2023-04-01T07:25:21;14.90;;;7.43;;
18726;SDS011;9492;51.888;5.186;2023-04-01T07:27:50;10.07;;;6.50;;
18726;SDS011;9492;51.888;5.186;2023-04-01T07:30:20;13.53;;;7.17;;
18726;SDS011;9492;51.888;5.186;2023-04-01T07:32:58;13.87;;;7.73;;
18726;SDS011;9492;51.888;5.186;2023-04-01T07:35:28;12.07;;;8.07;;
18726;SDS011;9492;51.888;5.186;2023-04-01T07:50:47;14.93;;;9.03;;
18726;SDS011;9492;51.888;5.186;2023-04-01T07:53:17;16.47;;;8.97;;
18726;SDS011;9492;51.888;5.186;2023-04-01T07:55:49;16.53;;;9.30;;
18726;SDS011;9492;51.888;5.186;2023-04-01T08:00:53;17.23;;;10.37;;
18726;SDS011;9492;51.888;5.186;2023-04-01T08:11:29;18.10;;;10.07;;
18726;SDS011;9492;51.888;5.186;2023-04-01T08:14:17;16.97;;;9.40;;
18726;SDS011;9492;51.888;5.186;2023-04-01T08:16:53;16.57;;;9.43;;
18726;SDS011;9492;51.888;5.186;2023-04-01T08:21:51;18.10;;;10.70;;
18726;SDS011;9492;51.888;5.186;2023-04-01T08:24:20;20.77;;;11.03;;
18726;SDS011;9492;51.888;5.186;2023-04-01T08:26:50;17.30;;;9.63;;
18726;SDS011;9492;51.888;5.186;2023-04-01T08:29:20;17.60;;;10.53;;
18726;SDS011;9492;51.888;5.186;2023-04-01T08:34:15;19.17;;;9.90;;
18726;SDS011;9492;51.888;5.186;2023-04-01T08:36:45;19.03;;;10.77;;
18726;SDS011;9492;51.888;5.186;2023-04-01T08:40:00;16.50;;;8.93;;
18726;SDS011;9492;51.888;5.186;2023-04-01T08:42:04;16.07;;;9.23;;
18726;SDS011;9492;51.888;5.186;2023-04-01T08:55:42;12.60;;;8.23;;
18726;SDS011;9492;51.888;5.186;2023-04-01T09:06:05;13.80;;;8.43;;
18726;SDS011;9492;51.888;5.186;2023-04-01T09:16:35;15.50;;;8.83;;
18726;SDS011;9492;51.888;5.186;2023-04-01T09:32:41;13.30;;;8.20;;
18726;SDS011;9492;51.888;5.186;2023-04-01T09:37:54;12.27;;;7.67;;
18726;SDS011;9492;51.888;5.186;2023-04-01T09:56:23;10.20;;;6.40;;
18726;SDS011;9492;51.888;5.186;2023-04-01T10:07:18;8.50;;;6.37;;
18726;SDS011;9492;51.888;5.186;2023-04-01T10:12:43;9.50;;;6.30;;
18726;SDS011;9492;51.888;5.186;2023-04-01T11:06:08;6.87;;;4.60;;
18726;SDS011;9492;51.888;5.186;2023-04-01T11:08:50;4.80;;;3.63;;
18726;SDS011;9492;51.888;5.186;2023-04-01T11:24:42;5.93;;;3.93;;
18726;SDS011;9492;51.888;5.186;2023-04-01T11:27:20;4.17;;;3.53;;
18726;SDS011;9492;51.888;5.186;2023-04-01T11:38:20;6.40;;;4.53;;
18726;SDS011;9492;51.888;5.186;2023-04-01T11:41:13;4.77;;;4.33;;
18726;SDS011;9492;51.888;5.186;2023-04-01T11:46:16;7.00;;;4.57;;
18726;SDS011;9492;51.888;5.186;2023-04-01T11:51:43;9.20;;;5.57;;
18726;SDS011;9492;51.888;5.186;2023-04-01T11:57:13;5.83;;;4.37;;
18726;SDS011;9492;51.888;5.186;2023-04-01T12:02:33;11.20;;;6.70;;
18726;SDS011;9492;51.888;5.186;2023-04-01T12:07:53;8.13;;;5.30;;
18726;SDS011;9492;51.888;5.186;2023-04-01T12:15:56;6.03;;;4.20;;
18726;SDS011;9492;51.888;5.186;2023-04-01T12:18:31;5.27;;;4.40;;
18726;SDS011;9492;51.888;5.186;2023-04-01T12:26:09;4.80;;;3.90;;
18726;SDS011;9492;51.888;5.186;2023-04-01T12:31:34;7.10;;;5.13;;
18726;SDS011;9492;51.888;5.186;2023-04-01T12:34:18;5.27;;;4.77;;
18726;SDS011;9492;51.888;5.186;2023-04-01T12:50:22;7.17;;;5.07;;
18726;SDS011;9492;51.888;5.186;2023-04-01T12:59:05;10.67;;;7.70;;
18726;SDS011;9492;51.888;5.186;2023-04-01T13:01:16;6.90;;;5.20;;
18726;SDS011;9492;51.888;5.186;2023-04-01T13:06:23;4.33;;;3.93;;
18726;SDS011;9492;51.888;5.186;2023-04-01T13:17:07;17.00;;;11.07;;
18726;SDS011;9492;51.888;5.186;2023-04-01T13:19:47;7.83;;;6.37;;
18726;SDS011;9492;51.888;5.186;2023-04-01T13:22:32;8.90;;;7.43;;
18726;SDS011;9492;51.888;5.186;2023-04-01T13:25:06;39.93;;;18.90;;
18726;SDS011;9492;51.888;5.186;2023-04-01T13:27:44;15.80;;;9.50;;
18726;SDS011;9492;51.888;5.186;2023-04-01T13:35:10;7.90;;;5.50;;
18726;SDS011;9492;51.888;5.186;2023-04-01T13:37:46;6.70;;;5.50;;
18726;SDS011;9492;51.888;5.186;2023-04-01T13:43:19;6.97;;;5.67;;
18726;SDS011;9492;51.888;5.186;2023-04-01T14:01:46;6.20;;;5.30;;
18726;SDS011;9492;51.888;5.186;2023-04-01T14:04:21;8.40;;;6.00;;
18726;SDS011;9492;51.888;5.186;2023-04-01T14:12:04;4.63;;;4.00;;
18726;SDS011;9492;51.888;5.186;2023-04-01T14:22:16;6.03;;;4.87;;
18726;SDS011;9492;51.888;5.186;2023-04-01T14:25:03;6.53;;;5.33;;
18726;SDS011;9492;51.888;5.186;2023-04-01T14:35:38;3.37;;;3.07;;
18726;SDS011;9492;51.888;5.186;2023-04-01T14:38:16;2.10;;;2.00;;
18726;SDS011;9492;51.888;5.186;2023-04-01T14:46:14;1.97;;;1.87;;
18726;SDS011;9492;51.888;5.186;2023-04-01T14:48:55;1.80;;;1.70;;
18726;SDS011;9492;51.888;5.186;2023-04-01T14:54:14;2.13;;;2.00;;
18726;SDS011;9492;51.888;5.186;2023-04-01T14:56:51;3.00;;;2.80;;
18726;SDS011;9492;51.888;5.186;2023-04-01T14:59:27;3.37;;;2.80;;
18726;SDS011;9492;51.888;5.186;2023-04-01T15:12:22;2.53;;;2.30;;
18726;SDS011;9492;51.888;5.186;2023-04-01T15:15:10;2.77;;;2.57;;
18726;SDS011;9492;51.888;5.186;2023-04-01T15:17:43;2.50;;;2.30;;
18726;SDS011;9492;51.888;5.186;2023-04-01T15:25:20;3.50;;;3.20;;
18726;SDS011;9492;51.888;5.186;2023-04-01T15:27:58;2.87;;;2.63;;
18726;SDS011;9492;51.888;5.186;2023-04-01T15:38:18;3.97;;;3.40;;
18726;SDS011;9492;51.888;5.186;2023-04-01T15:43:44;3.80;;;3.50;;
18726;SDS011;9492;51.888;5.186;2023-04-01T15:47:19;4.30;;;3.83;;
18726;SDS011;9492;51.888;5.186;2023-04-01T15:54:23;3.13;;;2.93;;
18726;SDS011;9492;51.888;5.186;2023-04-01T15:59:47;13.77;;;8.50;;
18726;SDS011;9492;51.888;5.186;2023-04-01T16:02:29;14.60;;;7.60;;
18726;SDS011;9492;51.888;5.186;2023-04-01T16:07:35;9.60;;;7.63;;
18726;SDS011;9492;51.888;5.186;2023-04-01T16:10:16;4.17;;;3.63;;
18726;SDS011;9492;51.888;5.186;2023-04-01T16:12:53;6.70;;;6.00;;
18726;SDS011;9492;51.888;5.186;2023-04-01T16:26:09;2.13;;;1.93;;
18726;SDS011;9492;51.888;5.186;2023-04-01T16:29:03;2.70;;;2.50;;
18726;SDS011;9492;51.888;5.186;2023-04-01T16:37:00;3.03;;;2.73;;
18726;SDS011;9492;51.888;5.186;2023-04-01T16:44:24;2.97;;;2.70;;
18726;SDS011;9492;51.888;5.186;2023-04-01T16:49:21;3.10;;;2.80;;
18726;SDS011;9492;51.888;5.186;2023-04-01T17:02:08;2.30;;;2.10;;
18726;SDS011;9492;51.888;5.186;2023-04-01T17:04:47;2.50;;;2.30;;
18726;SDS011;9492;51.888;5.186;2023-04-01T17:12:30;2.67;;;2.47;;
18726;SDS011;9492;51.888;5.186;2023-04-01T17:15:14;2.57;;;2.37;;
18726;SDS011;9492;51.888;5.186;2023-04-01T17:18:01;3.10;;;2.63;;
18726;SDS011;9492;51.888;5.186;2023-04-01T17:20:33;2.33;;;2.20;;
18726;SDS011;9492;51.888;5.186;2023-04-01T17:52:30;2.87;;;2.63;;
18726;SDS011;9492;51.888;5.186;2023-04-01T18:00:17;3.50;;;3.20;;
18726;SDS011;9492;51.888;5.186;2023-04-01T18:05:24;4.23;;;3.83;;
18726;SDS011;9492;51.888;5.186;2023-04-01T18:08:04;5.03;;;4.63;;
18726;SDS011;9492;51.888;5.186;2023-04-01T18:18:36;4.63;;;4.17;;
18726;SDS011;9492;51.888;5.186;2023-04-01T18:23:46;3.90;;;3.60;;
18726;SDS011;9492;51.888;5.186;2023-04-01T18:26:14;4.37;;;3.90;;
18726;SDS011;9492;51.888;5.186;2023-04-01T18:28:49;4.27;;;3.50;;
18726;SDS011;9492;51.888;5.186;2023-04-01T18:31:18;3.40;;;3.10;;
18726;SDS011;9492;51.888;5.186;2023-04-01T18:34:29;7.87;;;5.50;;
18726;SDS011;9492;51.888;5.186;2023-04-01T18:36:47;3.83;;;3.47;;
18726;SDS011;9492;51.888;5.186;2023-04-01T18:41:55;5.93;;;4.70;;
18726;SDS011;9492;51.888;5.186;2023-04-01T18:57:27;3.90;;;3.60;;
18726;SDS011;9492;51.888;5.186;2023-04-01T19:00:04;5.83;;;4.27;;
18726;SDS011;9492;51.888;5.186;2023-04-01T19:02:34;6.40;;;5.57;;
18726;SDS011;9492;51.888;5.186;2023-04-01T19:05:04;4.60;;;4.20;;
18726;SDS011;9492;51.888;5.186;2023-04-01T19:07:48;4.50;;;4.10;;
18726;SDS011;9492;51.888;5.186;2023-04-01T19:10:21;4.90;;;4.40;;
18726;SDS011;9492;51.888;5.186;2023-04-01T19:20:37;8.40;;;5.97;;
18726;SDS011;9492;51.888;5.186;2023-04-01T19:25:53;4.43;;;4.03;;
18726;SDS011;9492;51.888;5.186;2023-04-01T19:28:31;4.97;;;4.47;;
18726;SDS011;9492;51.888;5.186;2023-04-01T19:31:17;5.37;;;4.87;;
18726;SDS011;9492;51.888;5.186;2023-04-01T19:38:40;4.70;;;4.30;;
18726;SDS011;9492;51.888;5.186;2023-04-01T19:46:16;8.03;;;5.13;;
18726;SDS011;9492;51.888;5.186;2023-04-01T19:48:49;6.33;;;5.20;;
18726;SDS011;9492;51.888;5.186;2023-04-01T19:56:34;5.17;;;4.67;;
18726;SDS011;9492;51.888;5.186;2023-04-01T19:59:03;5.30;;;4.77;;
18726;SDS011;9492;51.888;5.186;2023-04-01T20:01:37;5.20;;;4.70;;
18726;SDS011;9492;51.888;5.186;2023-04-01T20:07:38;4.87;;;4.30;;
18726;SDS011;9492;51.888;5.186;2023-04-01T20:09:43;9.47;;;5.07;;
18726;SDS011;9492;51.888;5.186;2023-04-01T20:15:00;5.27;;;4.60;;
18726;SDS011;9492;51.888;5.186;2023-04-01T20:17:38;6.47;;;5.10;;
18726;SDS011;9492;51.888;5.186;2023-04-01T20:25:17;4.20;;;3.90;;
18726;SDS011;9492;51.888;5.186;2023-04-01T20:27:47;4.00;;;3.70;;
18726;SDS011;9492;51.888;5.186;2023-04-01T20:32:47;4.73;;;4.23;;
18726;SDS011;9492;51.888;5.186;2023-04-01T20:40:41;4.40;;;4.00;;
18726;SDS011;9492;51.888;5.186;2023-04-01T20:45:57;4.90;;;4.40;;
18726;SDS011;9492;51.888;5.186;2023-04-01T20:48:40;3.97;;;3.67;;
18726;SDS011;9492;51.888;5.186;2023-04-01T20:58:53;3.77;;;3.47;;
18726;SDS011;9492;51.888;5.186;2023-04-01T21:25:22;5.63;;;5.13;;
18726;SDS011;9492;51.888;5.186;2023-04-01T21:33:08;7.10;;;6.40;;
18726;SDS011;9492;51.888;5.186;2023-04-01T21:54:07;5.87;;;5.37;;
18726;SDS011;9492;51.888;5.186;2023-04-01T21:59:23;5.67;;;5.17;;
18726;SDS011;9492;51.888;5.186;2023-04-01T22:02:02;6.33;;;4.90;;
18726;SDS011;9492;51.888;5.186;2023-04-01T22:07:07;5.40;;;4.90;;
18726;SDS011;9492;51.888;5.186;2023-04-01T22:10:26;4.83;;;4.33;;
18726;SDS011;9492;51.888;5.186;2023-04-01T22:12:27;4.93;;;4.53;;
18726;SDS011;9492;51.888;5.186;2023-04-01T22:17:32;6.17;;;5.57;;
18726;SDS011;9492;51.888;5.186;2023-04-01T22:20:10;5.17;;;4.70;;
18726;SDS011;9492;51.888;5.186;2023-04-01T22:22:55;4.83;;;4.43;;
18726;SDS011;9492;51.888;5.186;2023-04-01T22:25:40;4.43;;;4.07;;
18726;SDS011;9492;51.888;5.186;2023-04-01T22:28:09;5.03;;;4.63;;
18726;SDS011;9492;51.888;5.186;2023-04-01T22:30:52;5.10;;;4.60;;
18726;SDS011;9492;51.888;5.186;2023-04-01T22:38:42;5.30;;;4.47;;
18726;SDS011;9492;51.888;5.186;2023-04-01T22:43:44;4.80;;;4.20;;
18726;SDS011;9492;51.888;5.186;2023-04-01T22:56:47;6.03;;;5.43;;
18726;SDS011;9492;51.888;5.186;2023-04-01T22:59:16;6.07;;;5.50;;
18726;SDS011;9492;51.888;5.186;2023-04-01T23:01:45;6.23;;;5.20;;
18726;SDS011;9492;51.888;5.186;2023-04-01T23:04:14;5.83;;;5.10;;
18726;SDS011;9492;51.888;5.186;2023-04-01T23:06:44;5.50;;;4.97;;
18726;SDS011;9492;51.888;5.186;2023-04-01T23:12:09;6.53;;;5.37;;
18726;SDS011;9492;51.888;5.186;2023-04-01T23:22:43;5.90;;;5.30;;
18726;SDS011;9492;51.888;5.186;2023-04-01T23:27:43;8.10;;;5.83;;
18726;SDS011;9492;51.888;5.186;2023-04-01T23:32:56;6.30;;;5.70;;
18726;SDS011;9492;51.888;5.186;2023-04-01T23:35:38;7.47;;;5.97;;
18726;SDS011;9492;51.888;5.186;2023-04-01T23:38:12;6.83;;;6.07;;
18726;SDS011;9492;51.888;5.186;2023-04-01T23:40:39;6.43;;;5.83;;
18726;SDS011;9492;51.888;5.186;2023-04-01T23:43:39;6.73;;;6.10;;
18726;SDS011;9492;51.888;5.186;2023-04-01T23:46:02;6.67;;;5.97;;
18726;SDS011;9492;51.888;5.186;2023-04-01T23:48:33;7.13;;;6.37;;
18726;SDS011;9492;51.888;5.186;2023-04-01T23:50:59;7.27;;;5.73;;
18726;SDS011;9492;51.888;5.186;2023-04-01T23:53:32;6.67;;;5.50;;
18726;SDS011;9492;51.888;5.186;2023-04-01T23:55:59;6.43;;;5.83;;
